الصفحة الرئيسية
METAR-TAF:

METAR-TAF

مطار :

كوراساو, جزر الأنتيل الهولندية

دائرة عرض: 12-12N, خط طول: 068-58W, ارتفاع: 9 متر

مراقبة الطقس الحالي

تاريخ ووقت الإصدار 20 دقيقة قبل الساعة 04:00UTC
ريح 15 عقدة من الشرق
درجة الحرارة 26°درجة مئوية
الرطوبة 74%
ضغط 1015 hPa
الرؤية 10 كم أو أكثر
غيوم مفككة على ارتفاع 4900 قدم

METAR: TNCC 240400Z AUTO 10015KT 9999 BKN049 26/21 Q1015 NOSIG

زمن: 00:20 (04:20 UTC)

توقعات

تاريخ ووقت الإصدار 6ساعات و 20 دقيقة قبل الساعة 22:00UTC
التوقعات صالحة من24 الساعة 00 UTC إلى 24 الساعة 24 UTC
ريح 14 عقدة من الشرق
الرؤية 10 كم أو أكثر
غيوم متفرقة على ارتفاع 2000 قدم
نظرية الاحتمالات 30% :
مؤقت
من 24 الساعة 06 UTC إلى 24 الساعة 16 UTC
الرؤية: 7000 متر
غيوم مفككة على ارتفاع 1500 قدم
زخات من المطر

TAF: TNCC 232200Z 2400/2424 10014KT 9999 SCT020 PROB30 TEMPO 2406/2416 7000 SHRA BKN015

أرصاد الطقس والتوقعات من أكثر من 4000 مطار (تقارير الطقس للمطار METAR والتنبؤ بالطقس بالمطارTAF).

المحطات المتاحة هي النقط الصفراء والحمراء على الخريطة.

حرك المؤشر فوق النقطة لمعرفة اسم المحطة.

ثم انقر لمعرفة أرصاد وتوقعات الطقس.

لتغيير الخارطة: اضغط على الأزرار الخضراء مع رمز الصليب الأسود للتكبير. على الزر الأخضر مع شرطة للتصغير، أو على الأسهم الخضراء للخرائط المجاورة.


METAR-TAF: